Time;durP1;ratioP1;P1;durP2;ratioP2;P2;SDS_P1;SDS_P2;PMS_P1;PMS_P2;Temp;Humidity;BMP_temperature;BMP_pressure;BME280_temperature;BME280_humidity;BME280_pressure;Samples;Min_cycle;Max_cycle;Signal;HPM_P1;HPM_P2
2023/10/02 00:01:53;;;;;;;10.27;5.00;;;15.60;99.90;;;;;;5032445;28;20196;-65
2023/10/02 00:04:24;;;;;;;12.45;5.40;;;15.50;99.90;;;;;;5026451;28;20204;-64
2023/10/02 00:07:08;;;;;;;12.67;5.30;;;15.40;99.90;;;;;;5015549;28;20204;-65
2023/10/02 00:09:36;;;;;;;10.38;4.97;;;15.50;99.90;;;;;;5020510;28;20200;-65
2023/10/02 00:12:14;;;;;;;10.27;5.22;;;15.50;99.90;;;;;;5027185;28;20295;-65
2023/10/02 00:14:42;;;;;;;12.90;5.93;;;15.50;99.90;;;;;;5022614;28;20214;-65
2023/10/02 00:17:18;;;;;;;13.10;5.32;;;15.50;99.90;;;;;;5028668;28;20651;-65
2023/10/02 00:19:50;;;;;;;11.73;5.90;;;15.50;99.90;;;;;;5016855;28;20387;-65
2023/10/02 00:22:41;;;;;;;13.07;5.75;;;15.50;99.90;;;;;;5031259;28;20254;-65
2023/10/02 00:25:19;;;;;;;10.65;5.50;;;15.50;99.90;;;;;;5025338;28;20196;-65
2023/10/02 00:27:51;;;;;;;9.18;4.60;;;15.50;99.90;;;;;;5029744;28;20196;-65
2023/10/02 00:30:30;;;;;;;10.35;4.63;;;15.40;99.90;;;;;;5025276;28;20251;-65
2023/10/02 00:32:58;;;;;;;9.93;5.20;;;15.40;99.90;;;;;;5025203;28;20224;-64
2023/10/02 00:35:27;;;;;;;14.73;5.55;;;15.30;99.90;;;;;;5030501;28;20197;-65
2023/10/02 00:37:54;;;;;;;11.60;5.37;;;15.30;99.90;;;;;;5024487;28;20211;-66
2023/10/02 00:40:22;;;;;;;11.85;4.88;;;15.30;99.90;;;;;;5021376;28;20183;-67
2023/10/02 00:42:59;;;;;;;13.07;5.70;;;15.20;99.90;;;;;;5031343;28;20207;-65
2023/10/02 00:45:38;;;;;;;17.67;5.95;;;15.20;99.90;;;;;;5019494;28;20239;-65
2023/10/02 00:48:24;;;;;;;8.60;4.60;;;15.20;99.90;;;;;;5040183;28;20565;-64
2023/10/02 00:50:54;;;;;;;10.37;4.97;;;15.30;99.90;;;;;;5021534;28;20539;-70
2023/10/02 00:53:37;;;;;;;9.40;4.70;;;15.30;99.90;;;;;;5030732;28;20188;-65
2023/10/02 00:56:24;;;;;;;13.45;4.90;;;15.20;99.90;;;;;;5027825;28;20192;-64
2023/10/02 00:59:00;;;;;;;9.40;4.80;;;15.20;99.90;;;;;;5022338;28;20678;-68
2023/10/02 01:01:34;;;;;;;9.73;5.18;;;15.10;99.90;;;;;;5032061;28;20192;-65
2023/10/02 01:04:09;;;;;;;12.63;5.13;;;15.10;99.90;;;;;;5022575;28;20694;-64
2023/10/02 01:06:54;;;;;;;10.53;5.20;;;15.00;99.90;;;;;;5020603;28;20603;-64
2023/10/02 01:09:28;;;;;;;10.50;5.07;;;14.80;99.90;;;;;;5030888;28;20200;-64
2023/10/02 01:11:57;;;;;;;10.77;5.30;;;14.80;99.90;;;;;;5027146;28;20240;-64
2023/10/02 01:17:14;;;;;;;10.83;4.93;;;14.80;99.90;;;;;;5025505;28;20192;-64
2023/10/02 01:19:54;;;;;;;11.63;5.17;;;14.70;99.90;;;;;;5027314;28;20224;-64
2023/10/02 01:22:26;;;;;;;9.20;4.20;;;14.70;99.90;;;;;;5028277;28;20300;-64
2023/10/02 01:25:12;;;;;;;10.13;4.80;;;14.70;99.90;;;;;;5032633;28;20196;-65
2023/10/02 01:27:47;;;;;;;9.67;5.03;;;14.70;99.90;;;;;;5020023;28;20289;-64
2023/10/02 01:30:16;;;;;;;11.40;4.63;;;14.80;99.90;;;;;;5018514;28;20677;-65
2023/10/02 01:35:54;;;;;;;11.10;5.13;;;14.80;99.90;;;;;;5030914;28;20620;-70
2023/10/02 01:38:31;;;;;;;9.07;4.90;;;14.80;99.90;;;;;;5023717;28;20250;-68
2023/10/02 01:41:10;;;;;;;10.37;4.90;;;14.80;99.90;;;;;;5029173;28;20195;-67
2023/10/02 01:43:39;;;;;;;9.97;4.53;;;14.80;99.90;;;;;;5042933;28;20201;-67
2023/10/02 01:46:07;;;;;;;15.17;5.47;;;14.80;99.90;;;;;;5019357;28;20195;-66
2023/10/02 01:48:36;;;;;;;9.93;4.77;;;14.80;99.90;;;;;;5028517;28;20216;-64
2023/10/02 01:51:25;;;;;;;10.27;5.23;;;14.70;99.90;;;;;;5028691;28;20275;-65
2023/10/02 01:53:57;;;;;;;9.13;4.77;;;14.70;99.90;;;;;;5022827;28;20279;-63
2023/10/02 01:56:29;;;;;;;8.03;4.33;;;14.60;99.90;;;;;;5013018;28;20728;-67
2023/10/02 01:59:14;;;;;;;9.50;4.63;;;14.70;99.90;;;;;;5043720;28;20664;-63
2023/10/02 02:05:46;;;;;;;9.07;4.00;;;14.60;99.90;;;;;;5021697;28;20222;-68
2023/10/02 02:08:22;;;;;;;10.30;4.77;;;14.70;99.90;;;;;;5029812;28;20285;-65
2023/10/02 02:10:54;;;;;;;7.53;4.57;;;14.70;99.90;;;;;;5031437;28;20184;-63
2023/10/02 02:13:22;;;;;;;10.33;4.37;;;14.70;99.90;;;;;;5015304;28;20770;-63
2023/10/02 02:16:07;;;;;;;10.87;5.37;;;14.60;99.90;;;;;;5026255;28;20211;-63
2023/10/02 02:18:34;;;;;;;10.33;4.37;;;14.60;99.90;;;;;;5039168;28;20204;-64
2023/10/02 02:21:02;;;;;;;8.97;4.60;;;14.60;99.90;;;;;;5033407;28;20208;-63
2023/10/02 02:23:31;;;;;;;10.03;4.43;;;14.50;99.90;;;;;;5025327;28;20358;-63
2023/10/02 02:25:59;;;;;;;11.93;4.67;;;14.50;99.90;;;;;;5022596;28;20197;-64
2023/10/02 02:28:28;;;;;;;10.80;4.77;;;14.50;99.90;;;;;;5025336;28;20280;-67
2023/10/02 02:30:55;;;;;;;12.33;4.63;;;14.40;99.90;;;;;;5028364;28;20291;-63
2023/10/02 02:33:38;;;;;;;8.20;4.00;;;14.40;99.90;;;;;;5025999;28;20221;-76
2023/10/02 02:36:05;;;;;;;12.30;5.10;;;14.40;99.90;;;;;;5032161;28;20189;-64
2023/10/02 02:38:33;;;;;;;9.77;5.37;;;14.40;99.90;;;;;;5030597;28;20590;-63
2023/10/02 02:41:07;;;;;;;9.10;4.23;;;14.40;99.90;;;;;;5036598;28;20188;-63
2023/10/02 02:43:37;;;;;;;9.30;4.93;;;14.40;99.90;;;;;;5022792;28;20200;-64
2023/10/02 02:46:06;;;;;;;10.40;4.40;;;14.40;99.90;;;;;;5019849;28;20204;-64
2023/10/02 02:48:43;;;;;;;10.50;4.43;;;14.40;99.90;;;;;;5027869;28;20204;-64
2023/10/02 02:51:21;;;;;;;10.07;4.43;;;14.30;99.90;;;;;;5021938;28;20197;-66
2023/10/02 02:53:51;;;;;;;10.40;4.83;;;14.30;99.90;;;;;;5027655;28;20218;-64
2023/10/02 02:56:18;;;;;;;10.37;4.73;;;14.30;99.90;;;;;;5020527;28;20184;-71
2023/10/02 02:58:48;;;;;;;10.70;5.07;;;14.30;99.90;;;;;;5033062;28;20196;-66
2023/10/02 03:01:21;;;;;;;9.13;5.17;;;14.30;99.90;;;;;;5029085;28;20258;-63
2023/10/02 03:03:55;;;;;;;13.80;4.47;;;14.30;99.90;;;;;;5028007;28;20205;-67
2023/10/02 03:06:23;;;;;;;10.07;5.40;;;14.30;99.90;;;;;;5027078;28;20192;-69
2023/10/02 03:08:53;;;;;;;12.10;5.07;;;14.40;99.90;;;;;;5030854;28;20765;-69
2023/10/02 03:11:22;;;;;;;8.80;4.63;;;14.30;99.90;;;;;;5030100;28;20289;-64
2023/10/02 03:13:50;;;;;;;10.27;4.77;;;14.40;99.90;;;;;;5037267;28;20218;-70
2023/10/02 03:16:28;;;;;;;8.70;4.10;;;14.40;99.90;;;;;;5027444;28;20339;-69
2023/10/02 03:18:57;;;;;;;12.70;5.33;;;14.40;99.90;;;;;;5016288;28;20518;-65
2023/10/02 03:21:24;;;;;;;10.97;4.90;;;14.40;99.90;;;;;;5026471;28;20208;-64
2023/10/02 03:24:01;;;;;;;10.90;4.23;;;14.40;99.90;;;;;;5017828;28;20197;-64
2023/10/02 03:29:04;;;;;;;8.00;3.90;;;14.40;99.90;;;;;;5015902;28;20228;-66
2023/10/02 03:32:01;;;;;;;9.73;5.13;;;14.40;99.90;;;;;;5031934;28;20201;-65
2023/10/02 03:34:30;;;;;;;8.13;4.57;;;14.30;99.90;;;;;;5041949;28;20202;-65
2023/10/02 03:40:00;;;;;;;12.40;5.10;;;14.30;99.90;;;;;;5014749;28;20224;-65
2023/10/02 03:42:36;;;;;;;12.30;5.03;;;14.30;99.90;;;;;;5030339;28;20197;-65
2023/10/02 03:45:04;;;;;;;10.53;5.23;;;14.20;99.90;;;;;;5036855;28;20198;-65
2023/10/02 03:47:34;;;;;;;9.83;4.67;;;14.20;99.90;;;;;;5025295;28;20683;-65
2023/10/02 03:50:05;;;;;;;9.67;4.80;;;14.20;99.90;;;;;;5027652;28;20195;-64
2023/10/02 03:52:33;;;;;;;10.30;4.57;;;14.20;99.90;;;;;;5046790;28;20203;-64
2023/10/02 03:55:34;;;;;;;11.87;4.87;;;14.20;99.90;;;;;;5036521;28;20196;-68
2023/10/02 03:57:55;;;;;;;7.77;4.77;;;14.10;99.90;;;;;;5035146;28;20205;-69
2023/10/02 04:00:27;;;;;;;15.10;5.07;;;14.10;99.90;;;;;;5023873;28;20576;-70
2023/10/02 04:02:56;;;;;;;10.27;5.23;;;14.10;99.90;;;;;;5033420;28;20573;-68
2023/10/02 04:05:43;;;;;;;11.07;4.60;;;14.20;99.90;;;;;;5021592;28;21835;-64
2023/10/02 04:08:31;;;;;;;11.43;4.40;;;14.20;99.90;;;;;;5034863;28;20693;-64
2023/10/02 04:11:02;;;;;;;9.97;5.10;;;14.10;99.90;;;;;;5028960;28;20676;-67
2023/10/02 04:13:38;;;;;;;10.43;3.97;;;14.10;99.90;;;;;;5018319;28;20262;-64
2023/10/02 04:19:01;;;;;;;11.03;4.93;;;14.10;99.90;;;;;;5019200;28;20723;-66
2023/10/02 04:21:33;;;;;;;10.47;4.67;;;14.10;99.90;;;;;;5022740;28;20199;-64
2023/10/02 04:24:04;;;;;;;13.37;5.53;;;14.10;99.90;;;;;;5040878;28;20196;-64
2023/10/02 04:26:33;;;;;;;11.87;4.90;;;14.10;99.90;;;;;;5021694;28;20261;-64
2023/10/02 04:32:04;;;;;;;6.43;3.77;;;14.10;99.90;;;;;;5024938;28;20456;-64
2023/10/02 04:34:37;;;;;;;11.17;5.07;;;14.00;99.90;;;;;;5027135;28;20188;-64
2023/10/02 04:37:19;;;;;;;8.27;4.10;;;14.00;99.90;;;;;;5021917;28;20565;-64
2023/10/02 04:39:53;;;;;;;10.50;4.53;;;14.00;99.90;;;;;;5011247;28;20311;-63
2023/10/02 04:42:57;;;;;;;8.30;4.43;;;14.00;99.90;;;;;;5013029;28;20228;-64
2023/10/02 04:45:26;;;;;;;6.83;4.30;;;14.00;99.90;;;;;;5027296;28;20192;-63
2023/10/02 04:48:00;;;;;;;8.77;5.17;;;13.90;99.90;;;;;;5023278;28;20276;-64
2023/10/02 04:55:43;;;;;;;9.77;4.27;;;13.90;99.90;;;;;;5024365;28;20193;-73
2023/10/02 04:58:19;;;;;;;9.83;5.13;;;13.90;99.90;;;;;;5023761;28;20717;-68
2023/10/02 05:03:37;;;;;;;8.77;4.53;;;14.00;99.90;;;;;;5028188;28;20202;-68
2023/10/02 05:06:06;;;;;;;9.97;5.03;;;13.90;99.90;;;;;;5024635;28;20650;-69
2023/10/02 05:11:06;;;;;;;11.23;4.17;;;13.90;99.90;;;;;;5026942;28;20653;-69
2023/10/02 05:13:45;;;;;;;8.63;4.30;;;14.00;99.90;;;;;;5007878;28;20308;-70
2023/10/02 05:16:12;;;;;;;8.50;5.47;;;14.00;99.90;;;;;;5015950;28;20193;-69
2023/10/02 05:18:47;;;;;;;9.27;4.80;;;14.00;99.90;;;;;;5024385;28;20197;-70
2023/10/02 05:21:16;;;;;;;9.07;4.50;;;14.00;99.90;;;;;;5020618;28;20202;-70
2023/10/02 05:24:00;;;;;;;11.47;5.37;;;14.10;99.90;;;;;;5019794;28;20653;-69
2023/10/02 05:26:34;;;;;;;10.33;4.97;;;14.10;99.90;;;;;;5027018;28;20199;-69
2023/10/02 05:29:05;;;;;;;11.30;4.90;;;14.10;99.90;;;;;;5038234;28;20199;-68
2023/10/02 05:31:40;;;;;;;11.47;5.77;;;14.00;99.90;;;;;;5026452;28;20607;-71
2023/10/02 05:34:09;;;;;;;12.40;5.83;;;14.00;99.90;;;;;;5017086;28;20640;-70
2023/10/02 05:36:54;;;;;;;10.33;5.10;;;14.00;99.90;;;;;;5027959;28;20201;-69
2023/10/02 05:39:39;;;;;;;10.67;5.43;;;14.10;99.90;;;;;;5025962;28;20247;-69
2023/10/02 05:42:14;;;;;;;12.50;4.90;;;14.10;99.90;;;;;;5021342;28;20207;-70
2023/10/02 05:44:47;;;;;;;10.80;5.80;;;14.20;99.90;;;;;;5027253;28;20282;-68
2023/10/02 05:47:17;;;;;;;15.37;5.67;;;14.30;99.90;;;;;;5016525;28;20197;-71
2023/10/02 05:49:47;;;;;;;15.33;6.27;;;14.30;99.90;;;;;;5015865;28;20196;-71
2023/10/02 05:52:23;;;;;;;16.07;5.83;;;14.40;99.90;;;;;;5013584;28;20193;-77
2023/10/02 05:54:54;;;;;;;17.30;5.97;;;14.60;99.90;;;;;;5018151;28;20679;-70
2023/10/02 05:57:31;;;;;;;10.88;6.57;;;14.80;99.90;;;;;;5028060;28;20606;-69
2023/10/02 06:00:00;;;;;;;11.07;5.05;;;15.00;99.90;;;;;;5023564;28;20188;-70
2023/10/02 06:02:31;;;;;;;14.98;7.90;;;15.20;99.90;;;;;;5026934;28;20208;-70
2023/10/02 06:05:07;;;;;;;24.85;12.05;;;15.40;99.90;;;;;;5037227;28;20678;-72
2023/10/02 06:07:43;;;;;;;30.65;15.10;;;15.90;99.90;;;;;;5015274;28;20224;-78
2023/10/02 06:10:27;;;;;;;36.70;19.58;;;16.30;99.90;;;;;;5030818;28;20192;-70
2023/10/02 06:13:05;;;;;;;24.40;13.63;;;16.60;99.90;;;;;;5044521;28;20286;-73
2023/10/02 06:15:49;;;;;;;22.88;13.05;;;17.00;99.90;;;;;;5022100;28;20555;-73
2023/10/02 06:18:24;;;;;;;16.35;8.55;;;17.20;99.90;;;;;;5025409;28;20616;-72
2023/10/02 06:21:03;;;;;;;13.25;7.78;;;17.60;99.90;;;;;;5033444;28;20192;-75
2023/10/02 06:23:37;;;;;;;15.20;7.05;;;18.80;99.90;;;;;;5029350;28;20581;-65
2023/10/02 06:26:09;;;;;;;15.68;8.50;;;19.80;99.90;;;;;;5030014;28;20211;-64
2023/10/02 06:28:37;;;;;;;16.95;9.88;;;20.70;99.90;;;;;;5028063;28;20200;-67
2023/10/02 06:31:08;;;;;;;18.02;11.20;;;21.40;99.90;;;;;;5025003;28;20176;-67
2023/10/02 06:33:38;;;;;;;12.52;6.03;;;21.60;99.90;;;;;;5014423;28;20227;-64
2023/10/02 06:36:07;;;;;;;8.65;5.35;;;21.30;99.90;;;;;;5033023;28;20192;-64
2023/10/02 06:38:36;;;;;;;11.13;5.60;;;21.40;99.90;;;;;;5035182;28;20295;-66
2023/10/02 06:41:12;;;;;;;10.30;5.72;;;21.40;99.90;;;;;;5016180;28;20210;-65
2023/10/02 06:43:40;;;;;;;14.27;5.63;;;21.90;99.90;;;;;;5023079;28;20217;-65
2023/10/02 06:46:13;;;;;;;13.98;5.88;;;22.50;99.90;;;;;;5026090;28;20201;-65
2023/10/02 06:48:46;;;;;;;11.00;5.13;;;22.50;99.90;;;;;;5037277;28;20196;-68
2023/10/02 06:51:14;;;;;;;13.30;5.13;;;22.70;99.90;;;;;;5028245;28;20614;-67
2023/10/02 06:53:41;;;;;;;9.40;4.85;;;23.50;99.90;;;;;;5025347;28;20620;-67
2023/10/02 06:56:12;;;;;;;8.32;4.53;;;24.10;99.90;;;;;;5013161;28;20670;-67
2023/10/02 06:58:49;;;;;;;13.90;5.50;;;24.60;99.90;;;;;;5052672;28;20862;-65
2023/10/02 07:01:18;;;;;;;12.43;5.53;;;25.20;99.90;;;;;;5023485;28;20291;-67
2023/10/02 07:03:51;;;;;;;9.80;5.07;;;25.50;99.90;;;;;;5028043;28;20197;-66
2023/10/02 07:06:20;;;;;;;11.30;5.00;;;25.50;99.90;;;;;;5031432;28;20210;-66
2023/10/02 07:11:35;;;;;;;12.13;6.68;;;27.00;99.90;;;;;;5031897;28;20196;-64
2023/10/02 07:14:03;;;;;;;11.45;6.88;;;27.70;99.90;;;;;;5032157;28;20227;-65
2023/10/02 07:16:32;;;;;;;11.27;6.10;;;28.30;99.90;;;;;;5029336;28;20234;-66
2023/10/02 07:18:59;;;;;;;9.55;5.25;;;28.40;99.90;;;;;;5022573;28;20210;-65
2023/10/02 07:21:30;;;;;;;16.10;7.85;;;27.70;99.90;;;;;;5030161;28;20266;-65
2023/10/02 07:24:01;;;;;;;19.05;9.40;;;27.50;99.90;;;;;;5022337;28;20280;-66
2023/10/02 07:29:13;;;;;;;22.42;14.27;;;27.70;99.90;;;;;;5014288;28;20204;-65
2023/10/02 07:31:44;;;;;;;16.90;9.35;;;28.60;99.90;;;;;;5013006;28;20211;-68
2023/10/02 07:34:12;;;;;;;16.17;9.52;;;28.90;99.90;;;;;;5031285;28;20222;-66
2023/10/02 07:36:47;;;;;;;15.25;7.57;;;28.80;99.90;;;;;;5021401;28;20192;-67
2023/10/02 07:39:35;;;;;;;12.13;6.00;;;27.20;99.90;;;;;;5014305;28;20228;-64
2023/10/02 07:42:04;;;;;;;12.32;6.43;;;26.60;99.90;;;;;;5024438;28;20527;-68
2023/10/02 07:44:39;;;;;;;10.50;5.97;;;26.40;99.90;;;;;;5008539;28;20210;-65
2023/10/02 07:47:16;;;;;;;12.45;5.88;;;27.20;99.90;;;;;;5029614;28;20220;-67
2023/10/02 07:49:51;;;;;;;12.90;6.60;;;27.40;99.90;;;;;;5023529;28;20599;-65
2023/10/02 07:55:23;;;;;;;11.15;6.00;;;23.80;99.90;;;;;;5035413;28;20251;-65
2023/10/02 07:57:58;;;;;;;12.32;5.63;;;23.00;99.90;;;;;;5035036;28;20757;-66
2023/10/02 08:00:37;;;;;;;12.93;6.38;;;22.20;99.90;;;;;;5032636;28;20198;-68
2023/10/02 08:03:31;;;;;;;11.82;5.80;;;21.90;99.90;;;;;;5021578;28;20197;-65
2023/10/02 08:06:20;;;;;;;12.27;5.82;;;22.20;99.90;;;;;;5023694;28;20200;-65
2023/10/02 08:11:36;;;;;;;10.88;5.30;;;21.90;99.90;;;;;;5036385;28;20191;-65
2023/10/02 08:14:05;;;;;;;13.32;6.15;;;22.00;99.90;;;;;;5038172;28;20302;-65
2023/10/02 08:16:58;;;;;;;13.95;6.00;;;22.50;99.90;;;;;;5029414;28;20588;-66
2023/10/02 08:19:21;;;;;;;10.85;5.50;;;22.70;99.90;;;;;;5031742;28;20196;-65
2023/10/02 08:21:48;;;;;;;14.73;6.25;;;22.80;99.90;;;;;;5033119;28;20200;-74
2023/10/02 08:24:15;;;;;;;12.10;6.22;;;22.90;99.90;;;;;;5033100;28;20222;-67
2023/10/02 08:26:45;;;;;;;12.82;6.03;;;22.80;99.90;;;;;;5030361;28;20311;-65
2023/10/02 08:29:18;;;;;;;13.13;5.85;;;22.50;99.90;;;;;;5035374;28;20596;-67
2023/10/02 08:31:53;;;;;;;11.98;5.68;;;22.20;99.90;;;;;;5026364;28;20203;-66
2023/10/02 08:34:20;;;;;;;13.55;5.32;;;22.40;99.90;;;;;;5038128;28;20294;-69
2023/10/02 08:37:04;;;;;;;11.30;5.80;;;22.70;99.90;;;;;;5034637;28;20200;-69
2023/10/02 08:39:36;;;;;;;16.13;6.32;;;22.80;99.90;;;;;;5029931;28;20228;-74
2023/10/02 08:42:09;;;;;;;14.70;6.13;;;23.20;99.90;;;;;;5028654;28;20189;-69
2023/10/02 08:44:38;;;;;;;12.45;5.32;;;23.70;99.90;;;;;;5052031;28;20204;-67
2023/10/02 08:47:11;;;;;;;12.25;6.30;;;26.40;99.90;;;;;;5030802;28;20214;-66
2023/10/02 08:49:40;;;;;;;11.05;5.60;;;28.90;99.90;;;;;;5023852;28;20295;-65
2023/10/02 08:52:11;;;;;;;11.35;6.22;;;29.60;99.90;;;;;;5034892;28;20686;-65
2023/10/02 08:54:42;;;;;;;17.60;7.05;;;30.60;99.90;;;;;;5032878;28;20654;-65
2023/10/02 08:57:10;;;;;;;13.80;6.20;;;31.40;99.90;;;;;;5014571;28;20719;-66
2023/10/02 08:59:40;;;;;;;11.93;6.03;;;31.90;99.90;;;;;;5033641;28;20650;-66
2023/10/02 09:02:16;;;;;;;14.00;6.20;;;33.20;99.90;;;;;;5019434;28;20339;-66
2023/10/02 09:05:09;;;;;;;14.88;6.38;;;31.30;99.90;;;;;;5018467;28;20231;-67
2023/10/02 09:08:00;;;;;;;13.07;7.47;;;32.20;99.90;;;;;;5021993;28;20315;-69
2023/10/02 09:10:30;;;;;;;13.32;6.70;;;32.60;99.90;;;;;;5023594;28;20210;-65
2023/10/02 09:13:13;;;;;;;13.82;6.45;;;31.50;99.90;;;;;;5033867;28;20199;-66
2023/10/02 09:15:53;;;;;;;17.83;7.05;;;31.70;99.90;;;;;;5025716;28;20203;-66
2023/10/02 09:18:35;;;;;;;11.52;5.88;;;33.70;99.90;;;;;;5024102;28;20193;-66
2023/10/02 09:21:15;;;;;;;11.80;6.05;;;33.20;99.90;;;;;;5024425;28;20237;-65
2023/10/02 09:23:53;;;;;;;12.55;6.43;;;32.90;99.90;;;;;;5029969;28;20196;-66
2023/10/02 09:26:24;;;;;;;13.20;6.88;;;32.20;99.90;;;;;;5015899;28;20199;-66
2023/10/02 09:29:00;;;;;;;10.15;6.22;;;32.10;99.90;;;;;;5004984;28;20204;-68
2023/10/02 09:31:33;;;;;;;11.30;5.63;;;32.60;99.90;;;;;;5027747;28;20198;-67
2023/10/02 09:34:10;;;;;;;13.90;6.50;;;31.80;99.90;;;;;;5043002;28;20290;-66
2023/10/02 09:37:11;;;;;;;12.10;6.32;;;31.50;99.90;;;;;;5019030;28;20192;-65
2023/10/02 09:40:03;;;;;;;11.00;6.20;;;32.90;99.90;;;;;;5024996;28;20243;-67
2023/10/02 09:42:33;;;;;;;15.52;6.68;;;33.30;99.90;;;;;;5034401;28;20196;-66
2023/10/02 09:45:08;;;;;;;12.65;6.78;;;34.60;99.90;;;;;;5037992;28;20214;-66
2023/10/02 09:47:37;;;;;;;12.05;6.65;;;35.40;99.90;;;;;;5017937;28;20231;-67
2023/10/02 09:50:29;;;;;;;14.85;6.47;;;34.90;99.90;;;;;;5037511;28;20327;-66
2023/10/02 09:53:02;;;;;;;13.00;6.47;;;35.50;99.90;;;;;;5038200;28;20274;-66
2023/10/02 09:55:41;;;;;;;12.13;6.63;;;33.50;99.90;;;;;;5029020;28;20248;-69
2023/10/02 09:58:27;;;;;;;13.52;7.40;;;33.30;99.90;;;;;;5017466;28;20620;-70
2023/10/02 10:03:57;;;;;;;13.15;6.82;;;35.50;99.90;;;;;;5029651;28;20320;-69
2023/10/02 10:06:37;;;;;;;16.70;6.93;;;35.10;99.90;;;;;;5033378;28;20196;-70
2023/10/02 10:11:42;;;;;;;16.60;7.15;;;35.40;99.90;;;;;;5026597;28;20196;-69
2023/10/02 10:14:45;;;;;;;14.63;6.97;;;34.90;99.90;;;;;;5029098;28;20615;-69
2023/10/02 10:17:18;;;;;;;14.50;6.95;;;34.20;99.90;;;;;;5001566;28;20683;-69
2023/10/02 10:20:08;;;;;;;10.93;6.43;;;31.80;99.90;;;;;;5025400;28;20841;-69
2023/10/02 10:22:39;;;;;;;11.98;6.60;;;33.70;99.90;;;;;;5042770;28;20207;-70
2023/10/02 10:25:35;;;;;;;11.88;6.88;;;31.90;99.90;;;;;;5029430;28;20640;-69
2023/10/02 10:28:06;;;;;;;16.05;7.45;;;31.90;99.90;;;;;;5030304;28;20291;-69
2023/10/02 10:30:45;;;;;;;13.63;6.97;;;33.20;99.90;;;;;;5030143;28;20279;-69
2023/10/02 10:33:20;;;;;;;14.48;6.82;;;34.70;99.90;;;;;;5029369;28;20250;-69
2023/10/02 10:35:52;;;;;;;14.80;8.02;;;34.70;99.90;;;;;;5025962;28;20222;-70
2023/10/02 10:38:25;;;;;;;11.07;7.05;;;33.90;99.90;;;;;;5031990;28;20228;-70
2023/10/02 10:41:00;;;;;;;15.63;7.78;;;33.60;99.90;;;;;;5032294;28;20563;-72
2023/10/02 10:43:44;;;;;;;14.00;7.80;;;33.80;99.90;;;;;;5045685;28;20791;-70
2023/10/02 10:46:17;;;;;;;14.82;7.63;;;35.00;99.90;;;;;;5033402;28;20218;-70
2023/10/02 10:48:53;;;;;;;15.50;6.85;;;33.70;99.90;;;;;;5024414;28;20219;-69
2023/10/02 10:51:22;;;;;;;14.48;6.85;;;34.20;99.90;;;;;;5031100;28;20291;-69
2023/10/02 10:53:52;;;;;;;16.17;7.28;;;35.00;99.90;;;;;;5027875;28;20490;-65
2023/10/02 10:56:22;;;;;;;14.35;6.72;;;33.00;99.90;;;;;;5034667;28;20668;-66
2023/10/02 10:59:02;;;;;;;12.18;6.55;;;33.20;99.90;;;;;;5037467;28;20192;-67
2023/10/02 11:01:29;;;;;;;13.77;7.40;;;34.30;99.90;;;;;;5009896;28;20202;-66
2023/10/02 11:04:02;;;;;;;13.60;7.15;;;32.70;99.90;;;;;;5031898;28;20207;-66
2023/10/02 11:06:30;;;;;;;13.40;7.05;;;31.60;99.90;;;;;;5030313;28;20845;-66
2023/10/02 11:09:12;;;;;;;14.73;6.68;;;31.90;99.90;;;;;;5029496;28;20662;-66
2023/10/02 11:11:49;;;;;;;14.23;6.88;;;31.00;99.90;;;;;;5034672;28;22632;-66
2023/10/02 11:14:34;;;;;;;14.30;7.63;;;32.20;99.90;;;;;;5030741;28;20236;-67
2023/10/02 11:17:04;;;;;;;16.60;7.75;;;32.40;99.90;;;;;;5029316;28;20199;-66
2023/10/02 11:19:43;;;;;;;14.65;6.88;;;31.70;99.90;;;;;;5038273;28;20267;-66
2023/10/02 11:22:14;;;;;;;14.15;6.60;;;31.10;99.90;;;;;;5026515;28;20299;-66
2023/10/02 11:25:17;;;;;;;16.60;6.78;;;32.30;99.90;;;;;;5036580;28;20195;-66
2023/10/02 11:27:56;;;;;;;15.55;7.60;;;33.70;99.90;;;;;;5029124;28;20200;-68
2023/10/02 11:30:33;;;;;;;13.20;6.97;;;33.30;99.90;;;;;;5028404;28;20633;-66
2023/10/02 11:33:04;;;;;;;13.00;6.95;;;33.20;99.90;;;;;;5033378;28;20254;-67
2023/10/02 11:35:38;;;;;;;13.57;7.00;;;32.20;99.90;;;;;;5029412;28;20759;-66
2023/10/02 11:38:09;;;;;;;16.98;7.45;;;32.10;99.90;;;;;;5031791;28;20191;-66
2023/10/02 11:40:37;;;;;;;11.88;6.82;;;32.90;99.90;;;;;;5031048;28;20259;-66
2023/10/02 11:43:04;;;;;;;15.30;6.78;;;33.10;99.90;;;;;;5024649;28;20625;-69
2023/10/02 11:45:32;;;;;;;15.07;7.30;;;32.60;99.90;;;;;;5027071;28;20196;-65
2023/10/02 11:47:59;;;;;;;13.20;6.95;;;32.70;99.90;;;;;;5033238;28;20572;-66
2023/10/02 11:50:27;;;;;;;13.15;7.05;;;32.80;99.90;;;;;;5018818;28;20204;-66
2023/10/02 11:52:54;;;;;;;14.20;6.75;;;33.20;99.90;;;;;;5040815;28;20193;-65
2023/10/02 11:55:23;;;;;;;12.35;6.43;;;32.00;99.90;;;;;;5026824;28;20697;-66
2023/10/02 11:57:53;;;;;;;10.98;7.00;;;31.50;99.90;;;;;;5009096;28;20299;-65
2023/10/02 12:00:22;;;;;;;11.38;6.38;;;30.70;99.90;;;;;;5018767;28;20200;-64
2023/10/02 12:02:50;;;;;;;13.45;6.70;;;29.80;99.90;;;;;;5020032;28;20200;-64
2023/10/02 12:05:18;;;;;;;13.18;6.53;;;29.60;99.90;;;;;;5022312;28;20189;-66
2023/10/02 12:07:46;;;;;;;13.02;6.35;;;29.60;99.90;;;;;;5016787;28;20199;-65
2023/10/02 12:10:15;;;;;;;13.18;6.32;;;29.70;99.90;;;;;;5031738;28;20710;-65
2023/10/02 12:12:45;;;;;;;13.95;6.38;;;29.50;99.90;;;;;;5020070;28;20201;-65
2023/10/02 12:15:15;;;;;;;14.65;6.85;;;29.10;99.90;;;;;;5028291;28;20208;-68
2023/10/02 12:17:43;;;;;;;14.52;7.35;;;28.70;99.90;;;;;;5027714;28;20199;-67
2023/10/02 12:20:12;;;;;;;13.75;6.72;;;28.70;99.90;;;;;;5025908;28;20195;-68
2023/10/02 12:22:40;;;;;;;11.77;6.82;;;28.60;99.90;;;;;;5031000;28;20223;-68
2023/10/02 12:25:10;;;;;;;16.20;6.93;;;29.60;99.90;;;;;;5029420;28;20196;-68
2023/10/02 12:27:39;;;;;;;15.85;7.10;;;29.40;99.90;;;;;;5037740;28;20198;-68
2023/10/02 12:30:11;;;;;;;10.77;6.53;;;29.70;99.90;;;;;;5025707;28;20189;-68
2023/10/02 12:32:40;;;;;;;12.38;6.18;;;30.30;99.90;;;;;;5029350;28;20303;-69
2023/10/02 12:35:08;;;;;;;11.30;6.05;;;29.60;99.90;;;;;;5029692;28;20661;-69
2023/10/02 12:37:35;;;;;;;14.27;7.15;;;29.00;99.90;;;;;;5026057;28;20662;-69
2023/10/02 12:40:09;;;;;;;13.52;6.32;;;29.00;99.90;;;;;;5028237;28;20236;-69
2023/10/02 12:42:37;;;;;;;14.07;6.22;;;28.60;99.90;;;;;;5035789;28;20275;-68
2023/10/02 12:45:06;;;;;;;13.25;7.30;;;28.20;99.90;;;;;;5033025;28;20268;-68
2023/10/02 12:47:36;;;;;;;15.38;5.93;;;28.50;99.90;;;;;;5034540;28;20252;-68
2023/10/02 12:50:10;;;;;;;11.80;6.50;;;28.60;99.90;;;;;;5023158;28;20197;-68
2023/10/02 12:52:38;;;;;;;12.95;6.57;;;28.70;99.90;;;;;;5027888;28;20203;-68
2023/10/02 12:55:05;;;;;;;13.63;6.53;;;29.30;99.90;;;;;;5027394;28;20271;-68
2023/10/02 12:57:35;;;;;;;13.43;6.22;;;30.00;99.90;;;;;;5027354;28;20590;-68
2023/10/02 13:00:16;;;;;;;11.73;6.63;;;30.20;99.90;;;;;;5034521;28;20766;-68
2023/10/02 13:02:44;;;;;;;12.50;6.40;;;30.10;99.90;;;;;;5030544;28;20207;-68
2023/10/02 13:05:12;;;;;;;16.13;6.65;;;30.20;99.90;;;;;;5020841;28;20284;-68
2023/10/02 13:07:41;;;;;;;14.43;6.97;;;30.50;99.90;;;;;;5025735;28;20502;-69
2023/10/02 13:10:08;;;;;;;12.77;7.35;;;30.50;99.90;;;;;;5036425;28;20611;-69
2023/10/02 13:12:36;;;;;;;16.50;6.43;;;30.10;99.90;;;;;;5030591;28;20277;-69
2023/10/02 13:15:03;;;;;;;14.45;8.15;;;30.10;99.90;;;;;;5033477;28;20653;-66
2023/10/02 13:17:31;;;;;;;10.73;6.25;;;30.30;99.90;;;;;;5033104;28;20221;-64
2023/10/02 13:19:59;;;;;;;14.90;6.40;;;30.30;99.90;;;;;;5031243;28;20197;-65
2023/10/02 13:22:26;;;;;;;14.43;7.32;;;29.50;99.90;;;;;;5036305;28;20716;-64
2023/10/02 13:24:53;;;;;;;12.82;7.15;;;30.00;99.90;;;;;;5013581;28;20576;-64
2023/10/02 13:27:21;;;;;;;12.88;7.68;;;29.90;99.90;;;;;;5031945;28;20246;-63
2023/10/02 13:29:51;;;;;;;16.83;10.35;;;29.80;99.90;;;;;;5030327;28;20198;-64
2023/10/02 13:32:18;;;;;;;12.60;6.30;;;29.80;99.90;;;;;;5031435;28;20223;-63
2023/10/02 13:34:47;;;;;;;13.40;6.28;;;29.40;99.90;;;;;;5032742;28;20235;-65
2023/10/02 13:37:14;;;;;;;12.30;6.65;;;29.00;99.90;;;;;;5039415;28;20220;-66
2023/10/02 13:39:41;;;;;;;14.45;7.07;;;29.20;99.90;;;;;;5029527;28;20498;-67
2023/10/02 13:42:08;;;;;;;11.40;6.63;;;28.80;99.90;;;;;;5036912;28;20621;-67
2023/10/02 13:44:35;;;;;;;13.68;7.18;;;29.10;99.90;;;;;;5032983;28;20670;-64
2023/10/02 13:47:06;;;;;;;18.02;8.15;;;29.20;99.90;;;;;;5037949;28;20219;-64
2023/10/02 13:49:39;;;;;;;14.63;7.28;;;29.30;99.90;;;;;;5034278;28;20205;-67
2023/10/02 13:52:06;;;;;;;16.48;7.35;;;29.60;99.90;;;;;;5012284;28;20191;-66
2023/10/02 13:54:33;;;;;;;11.00;5.97;;;29.60;99.90;;;;;;5033479;28;20204;-66
2023/10/02 13:57:02;;;;;;;14.73;6.70;;;29.00;99.90;;;;;;5036011;28;20752;-64
2023/10/02 13:59:31;;;;;;;12.13;5.80;;;28.70;99.90;;;;;;5032006;28;20268;-64